Thunder radar more information blitzortung!


Radar de pluja more information rain snow radar


Visita la nostra xarxa de llocs de meteo:

Template documentation
and downloads

And another site



No particular awareness of the weather is required.    There are no Weather-warnings

Pagina Historial Weather Underground text

Diari Resum Juliol 29, 2017 Unitats:  Imperial    Mètric   Tant
« Previous Dia
SegĂźent Dia »
Diari Setmana Mensual Anual Personalitzada
  Maxima: Minima: Media:
Temperatura: 94.8 °F 67.5 °F 82.4 °F
Punt de rosada: 67.8 °F 54.7 °F 61.3 °F
Humitat: 88 % 29 % 52 %
Wind Speed: 15 mph 0 mph 4 mph
RĂ fegues de vent: 15 mph - -
Vent:- - South
Pression baro: 30 in 29.9 in -
Precipitacions: 0 in    
Historical Graphs
 
 
Dades de taula per Juliol 29, 2017
Temps Temperatura Punt de rosada Pression baro Vent Wind Speed RĂ fegues de vent Humitat Rainfall Rate (Hourly)
00:00 69.1 °F 64.4 °F 30 in Calm   2 mph 85 % 0 in
00:03 73.2 °F 66.4 °F 30 in NNE 3.5 mph 3.5 mph 79 % 0 in
00:10 68.7 °F 64 °F 30 in Calm   1 mph 85 % 0 in
00:20 68.7 °F 64 °F 30 in Calm     85 % 0 in
00:30 68.5 °F 64.2 °F 30 in SW 1 mph 2 mph 86 % 0 in
00:40 68.4 °F 64 °F 30 in SW 1 mph 2 mph 86 % 0 in
00:50 68.4 °F 64.2 °F 30 in Calm   1 mph 87 % 0 in
01:00 68.4 °F 64.2 °F 30 in Calm     87 % 0 in
01:10 68.2 °F 64.2 °F 30 in Calm     87 % 0 in
01:20 68.2 °F 64.6 °F 30 in Calm     88 % 0 in
01:30 67.8 °F 64 °F 30 in Calm     88 % 0 in
01:40 67.8 °F 64 °F 30 in Calm     88 % 0 in
01:50 67.6 °F 64 °F 30 in Calm     88 % 0 in
02:00 67.5 °F 63.9 °F 30 in Calm     88 % 0 in
02:10 67.5 °F 63.9 °F 30 in Calm     88 % 0 in
02:20 67.6 °F 64 °F 30 in Calm     88 % 0 in
02:30 67.6 °F 64 °F 30 in South 1 mph 1 mph 88 % 0 in
02:40 67.8 °F 64 °F 30 in Calm   2 mph 88 % 0 in
02:50 68.4 °F 64.8 °F 30 in WSW 1 mph 1 mph 88 % 0 in
03:00 69.1 °F 65.5 °F 30 in Calm   1 mph 88 % 0 in
03:10 69.8 °F 65.8 °F 30 in ESE 1 mph 2 mph 87 % 0 in
03:20 70.3 °F 66 °F 30 in East 1 mph 1 mph 86 % 0 in
03:30 70.7 °F 66 °F 30 in SSE 2 mph 2 mph 85 % 0 in
03:40 71.6 °F 66.6 °F 30 in SSW 1 mph 2 mph 84 % 0 in
04:00 73.9 °F 66.4 °F 30 in ENE 1 mph 2 mph 77 % 0 in
04:10 74.3 °F 66.2 °F 30 in ENE 3 mph 3 mph 76 % 0 in
04:20 76.1 °F 67.3 °F 30 in ENE 1 mph 2 mph 74 % 0 in
04:30 75.9 °F 66.2 °F 30 in ENE 2 mph 4 mph 72 % 0 in
04:40 77.2 °F 66.9 °F 30 in Calm   2 mph 71 % 0 in
04:50 77.9 °F 66.6 °F 30 in NNE 1 mph 2 mph 68 % 0 in
05:00 79 °F 66.6 °F 30 in ESE 3 mph 4 mph 66 % 0 in
05:10 78.8 °F 66 °F 30 in ESE 2 mph 4 mph 65 % 0 in
05:20 79.5 °F 66.7 °F 30 in East 2 mph 4 mph 65 % 0 in
05:30 79.5 °F 65.5 °F 30 in NE 5 mph 5 mph 62 % 0 in
10:33 79.7 °F 65.5 °F 30 in ENE 3.5 mph 3.5 mph 62 % 0 in
10:38 80.1 °F 64 °F 30 in East 5.8 mph 5.8 mph 58 % 0 in
10:43 80.2 °F 64 °F 30 in NNE 3.5 mph 3.5 mph 58 % 0 in
10:48 80.8 °F 64 °F 30 in SSE 3.5 mph 3.5 mph 57 % 0 in
10:53 82 °F 65.8 °F 30 in SW 2.4 mph 2.4 mph 58 % 0 in
10:58 81.9 °F 66 °F 30 in SW 4.6 mph 4.6 mph 59 % 0 in
11:03 82.6 °F 66.4 °F 30 in NW 2.4 mph 2.4 mph 58 % 0 in
11:08 82.6 °F 66.4 °F 30 in SSW 2.3 mph 2.3 mph 58 % 0 in
11:13 84.4 °F 66.4 °F 30 in SSE 2.6 mph 2.6 mph 55 % 0 in
11:18 84.6 °F 66.6 °F 30 in NE 4.6 mph 4.6 mph 55 % 0 in
11:24 83.1 °F 65.3 °F 30 in ESE 4.6 mph 4.6 mph 55 % 0 in
11:29 83.5 °F 66 °F 30 in ESE 3.5 mph 3.5 mph 56 % 0 in
11:34 83.8 °F 65.8 °F 30 in ENE 2.9 mph 2.9 mph 55 % 0 in
11:39 83.1 °F 65.3 °F 30 in East 4.6 mph 4.6 mph 55 % 0 in
11:41 83.5 °F 65.7 °F 30 in SSW 2.3 mph 2.3 mph 55 % 0 in
11:46 85.3 °F 66.2 °F 30 in South 4.6 mph 4.6 mph 53 % 0 in
11:51 86.5 °F 67.8 °F 30 in WSW 3.6 mph 3.6 mph 54 % 0 in
11:56 85.8 °F 66.2 °F 30 in East 3.5 mph 3.5 mph 52 % 0 in
12:01 86.4 °F 66 °F 30 in SE 4.7 mph 4.7 mph 51 % 0 in
12:06 87.4 °F 67.6 °F 30 in SE 2.3 mph 2.3 mph 52 % 0 in
12:11 86.5 °F 65.7 °F 30 in ESE 4.7 mph 4.7 mph 50 % 0 in
12:13 86 °F 65.8 °F 30 in ENE 4.6 mph 4.6 mph 51 % 0 in
12:18 85.6 °F 65.5 °F 30 in NNE 5.8 mph 5.8 mph 51 % 0 in
12:23 86.4 °F 65.5 °F 30 in SE 3.5 mph 3.5 mph 50 % 0 in
12:28 87.8 °F 66.7 °F 30 in WSW 4.6 mph 4.6 mph 50 % 0 in
12:33 88.9 °F 67.3 °F 30 in SSE 1.6 mph 1.6 mph 49 % 0 in
12:38 89.2 °F 67.6 °F 30 in WNW 4.6 mph 4.6 mph 49 % 0 in
12:43 87.4 °F 65.3 °F 30 in East 6.9 mph 6.9 mph 48 % 0 in
12:48 86.9 °F 66 °F 29.9 in NE 4.6 mph 4.6 mph 50 % 0 in
12:53 87.6 °F 66 °F 29.9 in SSE 8.1 mph 8.1 mph 49 % 0 in
13:03 88 °F 65.8 °F 29.9 in ESE 6.9 mph 6.9 mph 48 % 0 in
13:08 86.7 °F 65.3 °F 29.9 in ESE 8.1 mph 8.1 mph 49 % 0 in
13:13 86.5 °F 65.7 °F 29.9 in SE 8.1 mph 8.1 mph 50 % 0 in
13:18 86.5 °F 65.7 °F 29.9 in ESE 11.5 mph 11.5 mph 50 % 0 in
13:23 86.5 °F 65.7 °F 29.9 in ENE 9.2 mph 9.2 mph 50 % 0 in
13:28 86.5 °F 65.7 °F 29.9 in NE 9.2 mph 9.2 mph 50 % 0 in
13:33 87.1 °F 66.2 °F 29.9 in ESE 6.9 mph 6.9 mph 50 % 0 in
13:38 86.5 °F 65.1 °F 29.9 in SE 11.5 mph 11.5 mph 49 % 0 in
13:43 86.5 °F 65.7 °F 29.9 in SSE 10.9 mph 10.9 mph 50 % 0 in
13:48 86.9 °F 66 °F 29.9 in ENE 10.4 mph 10.4 mph 50 % 0 in
13:53 86.9 °F 65.5 °F 29.9 in ESE 11.5 mph 11.5 mph 49 % 0 in
13:58 87.1 °F 65.7 °F 29.9 in ESE 10.4 mph 10.4 mph 49 % 0 in
14:03 87.4 °F 65.8 °F 29.9 in SSE 10.4 mph 10.4 mph 49 % 0 in
14:08 86.7 °F 65.3 °F 29.9 in SE 15 mph 15 mph 49 % 0 in
14:13 86.9 °F 66 °F 29.9 in ESE 10.4 mph 10.4 mph 50 % 0 in
14:18 86.9 °F 66 °F 29.9 in ENE 10.4 mph 10.4 mph 50 % 0 in
14:23 86.4 °F 65.5 °F 29.9 in ESE 12.3 mph 12.3 mph 50 % 0 in
14:28 86.7 °F 65.8 °F 29.9 in WSW 5.8 mph 5.8 mph 50 % 0 in
14:33 87.1 °F 66.2 °F 29.9 in ESE 8.1 mph 8.1 mph 50 % 0 in
14:38 87.3 °F 66.4 °F 29.9 in SSW 5.8 mph 5.8 mph 50 % 0 in
14:43 88.2 °F 66 °F 29.9 in SE 6.9 mph 6.9 mph 48 % 0 in
14:48 90.5 °F 65.7 °F 29.9 in South 4.7 mph 4.7 mph 44 % 0 in
14:53 92.3 °F 65.1 °F 29.9 in SW 5.6 mph 5.6 mph 41 % 0 in
14:58 92.5 °F 65.5 °F 29.9 in West 8.1 mph 8.1 mph 41 % 0 in
15:03 92.7 °F 63.3 °F 29.9 in South 4.6 mph 4.6 mph 38 % 0 in
15:13 92.7 °F 63.3 °F 29.9 in SW 6.9 mph 6.9 mph 38 % 0 in
15:18 93 °F 63 °F 29.9 in SSW 8.1 mph 8.1 mph 37 % 0 in
15:23 93.6 °F 62.6 °F 29.9 in WSW 3.5 mph 3.5 mph 36 % 0 in
15:28 93.2 °F 61.5 °F 29.9 in SW 4.6 mph 4.6 mph 35 % 0 in
15:33 94.3 °F 63.1 °F 29.9 in WSW 3.8 mph 3.8 mph 36 % 0 in
15:38 94.8 °F 62.1 °F 29.9 in SW 6.9 mph 6.9 mph 34 % 0 in
15:43 94.3 °F 61.5 °F 29.9 in West 4.6 mph 4.6 mph 34 % 0 in
15:48 94.6 °F 61.2 °F 29.9 in SSW 3.5 mph 3.5 mph 33 % 0 in
15:53 94.6 °F 61.2 °F 29.9 in South 5.8 mph 5.8 mph 33 % 0 in
15:58 94.1 °F 59.7 °F 29.9 in West 5.8 mph 5.8 mph 32 % 0 in
16:03 93.9 °F 59.5 °F 29.9 in SSW 7.1 mph 7.1 mph 32 % 0 in
16:08 93.9 °F 58.6 °F 29.9 in South 9.2 mph 9.2 mph 31 % 0 in
16:13 93.6 °F 59.4 °F 29.9 in WSW 3.6 mph 3.6 mph 32 % 0 in
16:18 93 °F 58.8 °F 29.9 in SSW 4.6 mph 4.6 mph 32 % 0 in
16:23 93 °F 57.9 °F 29.9 in SW 12.7 mph 12.7 mph 31 % 0 in
16:28 93.2 °F 58.1 °F 29.9 in SW 5.8 mph 5.8 mph 31 % 0 in
16:33 93.4 °F 57.4 °F 29.9 in South 9.2 mph 9.2 mph 30 % 0 in
16:38 93.6 °F 57.6 °F 29.9 in SSW 4.6 mph 4.6 mph 30 % 0 in
16:43 93.9 °F 58.6 °F 29.9 in WSW 4 mph 4 mph 31 % 0 in
16:48 94.1 °F 58.8 °F 29.9 in SW 5.8 mph 5.8 mph 31 % 0 in
16:53 93.4 °F 57.4 °F 29.9 in SW 9.7 mph 9.7 mph 30 % 0 in
16:58 92.3 °F 56.5 °F 29.9 in SSW 6.9 mph 6.9 mph 30 % 0 in
17:03 92.3 °F 56.5 °F 29.9 in WNW 8.1 mph 8.1 mph 30 % 0 in
17:08 92.5 °F 56.5 °F 29.9 in SW 6.9 mph 6.9 mph 30 % 0 in
17:18 92.3 °F 55.4 °F 29.9 in ESE 4.6 mph 4.6 mph 29 % 0 in
17:23 92.5 °F 56.5 °F 29.9 in SW 5.8 mph 5.8 mph 30 % 0 in
17:28 91.4 °F 54.7 °F 29.9 in South 9.2 mph 9.2 mph 29 % 0 in
17:33 91.2 °F 55.6 °F 29.9 in South 6.9 mph 6.9 mph 30 % 0 in
17:38 91.6 °F 54.9 °F 29.9 in SSW 8.1 mph 8.1 mph 29 % 0 in
17:43 90.5 °F 54.9 °F 29.9 in SSW 6.9 mph 6.9 mph 30 % 0 in
17:48 91.2 °F 55.6 °F 29.9 in SSW 5.8 mph 5.8 mph 30 % 0 in
17:53 91 °F 55.2 °F 29.9 in SW 8.1 mph 8.1 mph 30 % 0 in
17:58 91.2 °F 56.5 °F 29.9 in ESE 4.6 mph 4.6 mph 31 % 0 in
18:03 91.2 °F 56.5 °F 29.9 in SW 6.9 mph 6.9 mph 31 % 0 in
18:08 90.7 °F 55.9 °F 29.9 in SW 5.8 mph 5.8 mph 31 % 0 in
18:13 90.5 °F 55.8 °F 29.9 in SW 9.2 mph 9.2 mph 31 % 0 in
18:18 89.8 °F 55 °F 29.9 in SW 8.1 mph 8.1 mph 31 % 0 in
18:23 89.4 °F 54.9 °F 29.9 in SW 10.4 mph 10.4 mph 31 % 0 in
18:33 89.8 °F 55.9 °F 29.9 in SW 6.9 mph 6.9 mph 32 % 0 in
18:38 89.6 °F 55.8 °F 29.9 in SW 3.8 mph 3.8 mph 32 % 0 in
18:43 89.8 °F 55.9 °F 29.9 in SSW 3.5 mph 3.5 mph 32 % 0 in
18:48 90 °F 56.1 °F 29.9 in SSW 4.7 mph 4.7 mph 32 % 0 in
18:53 89.1 °F 56.1 °F 29.9 in WSW 8.1 mph 8.1 mph 33 % 0 in
18:58 88.9 °F 56.1 °F 29.9 in South 6.9 mph 6.9 mph 33 % 0 in
19:03 89.1 °F 57 °F 29.9 in SW 5.8 mph 5.8 mph 34 % 0 in
19:08 88.5 °F 56.7 °F 29.9 in SW 5.8 mph 5.8 mph 34 % 0 in
19:13 87.8 °F 55.9 °F 29.9 in SW 8.1 mph 8.1 mph 34 % 0 in
19:18 88.2 °F 56.3 °F 29.9 in SW 5.8 mph 5.8 mph 34 % 0 in
19:23 87.6 °F 56.7 °F 29.9 in South 6 mph 6 mph 35 % 0 in
19:28 86.9 °F 56.7 °F 29.9 in WSW 6.2 mph 6.2 mph 36 % 0 in
19:33 87.1 °F 56.8 °F 29.9 in SSE 4.3 mph 4.3 mph 36 % 0 in
19:38 86.7 °F 56.7 °F 29.9 in SW 4.6 mph 4.6 mph 36 % 0 in
19:43 86.7 °F 56.7 °F 29.9 in SW 5.8 mph 5.8 mph 36 % 0 in
19:48 86.5 °F 56.5 °F 29.9 in SW 4.9 mph 4.9 mph 36 % 0 in
19:53 86 °F 55.9 °F 29.9 in SW 4.6 mph 4.6 mph 36 % 0 in
19:58 85.6 °F 56.5 °F 29.9 in SW 6.9 mph 6.9 mph 37 % 0 in
20:03 85.5 °F 57 °F 29.9 in SW 3.5 mph 3.5 mph 38 % 0 in
20:08 85.3 °F 56.8 °F 29.9 in SSW 2.3 mph 2.3 mph 38 % 0 in
20:13 85.1 °F 56.7 °F 29.9 in South 5.8 mph 5.8 mph 38 % 0 in
20:18 84.9 °F 56.5 °F 29.9 in SE 3.1 mph 3.1 mph 38 % 0 in
20:23 84.7 °F 56.3 °F 29.9 in SW 4 mph 4 mph 38 % 0 in
20:28 84.6 °F 56.8 °F 29.9 in West 4.6 mph 4.6 mph 39 % 0 in
20:33 84.2 °F 56.7 °F 29.9 in WSW 2.3 mph 2.3 mph 39 % 0 in
20:38 84 °F 57.7 °F 29.9 in West 4.6 mph 4.6 mph 41 % 0 in
20:40 73.4 °F 61.3 °F 29.9 in Calm     66 % 0 in
20:43 83.5 °F 57.4 °F 29.9 in SW 3.5 mph 3.5 mph 41 % 0 in
20:48 83.3 °F 57 °F 29.9 in SW 2.9 mph 2.9 mph 41 % 0 in
20:50 73.4 °F 61.9 °F 29.9 in Calm     67 % 0 in
20:53 83.1 °F 57.6 °F 29.9 in SW 2.3 mph 2.3 mph 42 % 0 in
20:58 82.8 °F 57.4 °F 29.9 in SW 3.6 mph 3.6 mph 42 % 0 in
21:00 73.2 °F 61.5 °F 29.9 in Calm     67 % 0 in
21:03 82.4 °F 57 °F 29.9 in WSW 4.7 mph 4.7 mph 42 % 0 in
21:08 82 °F 57.4 °F 29.9 in WSW 3.6 mph 3.6 mph 43 % 0 in
21:10 73 °F 61.9 °F 29.9 in Calm     68 % 0 in
21:13 81.7 °F 57 °F 29.9 in SW 3.5 mph 3.5 mph 43 % 0 in
21:18 81.5 °F 57.6 °F 29.9 in SW 2.9 mph 2.9 mph 44 % 0 in
21:20 72.9 °F 61.7 °F 29.9 in Calm   2 mph 68 % 0 in
21:23 81.1 °F 57.2 °F 29.9 in SSW 3.5 mph 3.5 mph 44 % 0 in
21:28 81 °F 57.6 °F 29.9 in SW 3.5 mph 3.5 mph 45 % 0 in
21:33 80.6 °F 57.4 °F 29.9 in SW 2.3 mph 2.3 mph 45 % 0 in
21:38 80.2 °F 58.3 °F 29.9 in SW 3.5 mph 3.5 mph 47 % 0 in
21:40 72.1 °F 61.3 °F 29.9 in Calm   1 mph 69 % 0 in
21:43 80.1 °F 57.9 °F 29.9 in SW 2.3 mph 2.3 mph 47 % 0 in
21:48 79.9 °F 57.7 °F 29.9 in SW 3.5 mph 3.5 mph 47 % 0 in
21:50 72 °F 61.2 °F 29.9 in ENE 1 mph 2 mph 69 % 0 in
21:53 79.7 °F 58.3 °F 29.9 in SW 2.3 mph 2.3 mph 48 % 0 in
21:58 79.3 °F 57.9 °F 29.9 in SW 2.6 mph 2.6 mph 48 % 0 in
22:00 71.8 °F 61.2 °F 29.9 in ENE 1 mph 2 mph 69 % 0 in
22:03 79.2 °F 58.5 °F 29.9 in SSW 1.2 mph 1.2 mph 49 % 0 in
22:08 79 °F 58.3 °F 29.9 in WSW 1.2 mph 1.2 mph 49 % 0 in
22:10 71.2 °F 60.4 °F 29.9 in NE 2 mph 2 mph 69 % 0 in
22:13 79 °F 58.3 °F 29.9 in WSW 2.3 mph 2.3 mph 49 % 0 in
22:18 78.6 °F 58.5 °F 29.9 in WSW 1.2 mph   50 % 0 in
22:20 70.9 °F 60.3 °F 29.9 in NE 1 mph 2 mph 69 % 0 in
22:23 78.4 °F 58.3 °F 29.9 in WSW 2.3 mph 2.3 mph 50 % 0 in
22:28 78.4 °F 58.8 °F 29.9 in Calm     51 % 0 in
22:30 70.9 °F 59.7 °F 29.9 in Calm   2 mph 68 % 0 in
22:33 78.3 °F 58.6 °F 29.9 in West 1.2 mph   51 % 0 in
22:38 78.1 °F 59 °F 29.9 in West 1.4 mph   52 % 0 in
22:40 70.7 °F 59.2 °F 29.9 in Calm     67 % 0 in
22:43 78.1 °F 59 °F 29.9 in West 1.2 mph   52 % 0 in
22:48 77.9 °F 59.4 °F 29.9 in West 1.2 mph 1.2 mph 53 % 0 in
22:50 70.5 °F 60.3 °F 29.9 in Calm     70 % 0 in
22:53 77.9 °F 59.4 °F 29.9 in WSW 2.3 mph 2.3 mph 53 % 0 in
22:58 77.7 °F 59.7 °F 29.9 in WSW 2.3 mph 2.3 mph 54 % 0 in
23:00 70 °F 58.8 °F 29.9 in Calm     68 % 0 in
23:03 77.7 °F 59.7 °F 29.9 in SW 2.3 mph 2.3 mph 54 % 0 in
23:08 77.5 °F 59.5 °F 29.9 in SW 1.2 mph   54 % 0 in
23:10 70.2 °F 58.6 °F 29.9 in Calm     67 % 0 in
23:13 77.2 °F 59.7 °F 29.9 in WSW 1.2 mph   55 % 0 in
23:18 77.2 °F 59.7 °F 29.9 in West 2.3 mph 2.3 mph 55 % 0 in
23:20 70.2 °F 59.5 °F 29.9 in Calm     69 % 0 in
23:23 77 °F 60.1 °F 29.9 in WSW 1.2 mph   56 % 0 in
23:28 77 °F 60.1 °F 29.9 in West 1.4 mph 1.4 mph 56 % 0 in
23:30 70 °F 58.8 °F 29.9 in NNE 1 mph 1 mph 68 % 0 in
23:33 77 °F 60.1 °F 29.9 in West 2 mph 2 mph 56 % 0 in
23:38 76.8 °F 60.4 °F 29.9 in WSW 2.3 mph 2.3 mph 57 % 0 in
23:40 70.2 °F 58.6 °F 29.9 in Calm   1 mph 67 % 0 in
23:43 76.8 °F 61 °F 29.9 in WSW 2.3 mph   58 % 0 in
23:49 76.6 °F 60.8 °F 29.9 in West 1.2 mph   58 % 0 in
23:50 70 °F 59.4 °F 29.9 in Calm     69 % 0 in
23:54 76.5 °F 61.2 °F 29.9 in West 1.2 mph   59 % 0 in
23:59 76.5 °F 61.2 °F 29.9 in WNW 2.3 mph 2.3 mph 59 % 0 in
Meteo Sesrovires
Elogis d' Weather Underground - 3.5 mb

Guio original per  Jim McMurry - jmcmurry@mwt.net Adaptat per a la plantilla per  Wim van der Kuil - Leuven-Template.eu

Trobareu la nostra informacio del temps tambe a:

Weather Underground

AWEKAS